WetterOnline ( http://www.wetteronline.de )

Wetter aktuell München

Aktuelles Wetter: München/Stadt (535m)

6-stündlich | Neueste Meldungen
Ortszeit Temperatur Wetter
Di, 16.10. 20:00 14.6° C wolkenlos
Di, 16.10. 14:00 20.8° C wolkenlos
Di, 16.10. 8:00 8.4° C wolkenlos
Di, 16.10. 2:00 9.3° C wolkenlos
Mo, 15.10. 20:00 14.7° C wolkenlos
Mo, 15.10. 14:00 22.1° C wolkenlos
Mo, 15.10. 8:00 8.0° C wolkenlos
Mo, 15.10. 2:00 12.0° C wolkenlos
Ortszeit Temperatur Wetter
Di, 16.10. 22:30 11.5° C wolkenlos
Di, 16.10. 22:20 11.5° C wolkenlos
Di, 16.10. 22:10 11.9° C wolkenlos
Di, 16.10. 22:00 11.7° C wolkenlos
Di, 16.10. 21:50 11.7° C wolkenlos
Di, 16.10. 21:40 12.1° C fast wolkenlos
Di, 16.10. 21:30 12.3° C fast wolkenlos
Di, 16.10. 21:00 12.7° C leicht bewölkt
Di, 16.10. 20:30 13.4° C fast wolkenlos
Di, 16.10. 20:00 14.6° C wolkenlos
Di, 16.10. 19:30 15.5° C wolkenlos
Ortszeit Relative Feuchte Sichtweite
Di, 16.10. 20:00 68% 30 km
Di, 16.10. 14:00 37% 45 km
Di, 16.10. 8:00 91% 25 km
Di, 16.10. 2:00 92% 27 km
Mo, 15.10. 20:00 69% 35 km
Mo, 15.10. 14:00 36% 60 km
Mo, 15.10. 8:00 86% 27 km
Mo, 15.10. 2:00 62% 50 km
Ortszeit Relative Feuchte Sichtweite
Di, 16.10. 22:30 82% 30 km
Di, 16.10. 22:20 82% -
Di, 16.10. 22:10 81% -
Di, 16.10. 22:00 81% 30 km
Di, 16.10. 21:50 81% -
Di, 16.10. 21:40 80% -
Di, 16.10. 21:30 80% 30 km
Di, 16.10. 21:00 77% 30 km
Di, 16.10. 20:30 73% 30 km
Di, 16.10. 20:00 68% 30 km
Di, 16.10. 19:30 63% 35 km
Ortszeit Niederschlagsmenge Niederschlagsart
Di, 16.10. 20:00 0.0 l/m2 in 12 Std. -
Di, 16.10. 14:00 0.0 l/m2 in 6 Std. -
Di, 16.10. 8:00 0.0 l/m2 in 12 Std. -
Di, 16.10. 2:00 0.0 l/m2 in 6 Std. -
Mo, 15.10. 20:00 0.0 l/m2 in 12 Std. -
Mo, 15.10. 14:00 0.0 l/m2 in 6 Std. -
Mo, 15.10. 8:00 0.0 l/m2 in 12 Std. -
Mo, 15.10. 2:00 0.0 l/m2 in 6 Std. -
Ortszeit Niederschlagsmenge Niederschlagsart
Di, 16.10. 22:30 0.0 l/m2 in 1 Std. -
Di, 16.10. 22:20 keine Meldung -
Di, 16.10. 22:10 keine Meldung -
Di, 16.10. 22:00 0.0 l/m2 in 1 Std. -
Di, 16.10. 21:50 keine Meldung -
Di, 16.10. 21:40 keine Meldung -
Di, 16.10. 21:30 0.0 l/m2 in 1 Std. -
Di, 16.10. 21:00 0.0 l/m2 in 1 Std. -
Di, 16.10. 20:30 0.0 l/m2 in 1 Std. -
Di, 16.10. 20:00 0.0 l/m2 in 1 Std. -
Di, 16.10. 19:30 0.0 l/m2 in 1 Std. -
Ortszeit Stärke Spitze Richtung
km/h Bft. km/h Grad Sektor
Di, 16.10. 20:00 4 1 14 130° SO
Di, 16.10. 14:00 6 1 15 320° NW
Di, 16.10. 8:00 6 1 11 250° W
Di, 16.10. 2:00 4 1 11 200° S
Mo, 15.10. 20:00 6 1 24 60° NO
Mo, 15.10. 14:00 9 2 15 60° NO
Mo, 15.10. 8:00 4 1 11 170° S
Mo, 15.10. 2:00 7 2 18 130° SO
Ortszeit Stärke Spitze Richtung
km/h Bft. km/h Grad Sektor
Di, 16.10. 22:30 7 2 11 180° S
Di, 16.10. 22:20 7 2 - 180° S
Di, 16.10. 22:10 7 2 - 170° S
Di, 16.10. 22:00 6 1 7 170° S
Di, 16.10. 21:50 6 1 - 170° S
Di, 16.10. 21:40 6 1 - 170° S
Di, 16.10. 21:30 6 1 7 150° SO
Di, 16.10. 21:00 6 1 7 150° SO
Di, 16.10. 20:30 6 1 7 120° SO
Di, 16.10. 20:00 4 1 11 130° SO
Di, 16.10. 19:30 6 1 9 130° SO
Ortszeit Untergrenze Bedeckung Gattung
total tief tief mittel hoch
Di, 16.10. 20:00 3000 m 0/8 0/8 - - -
Di, 16.10. 14:00 - 0/8 0/8 - - -
Di, 16.10. 8:00 - 0/8 0/8 - - -
Di, 16.10. 2:00 5700 m 0/8 0/8 - - -
Mo, 15.10. 20:00 - 0/8 0/8 - - -
Mo, 15.10. 14:00 - 0/8 0/8 - - -
Mo, 15.10. 8:00 - 0/8 0/8 - - -
Mo, 15.10. 2:00 - 0/8 0/8 - - -
Ortszeit Bedeckungsgrad in Achtel und Wolkenuntergrenze
Di, 16.10. 22:30 keine Wolken
Di, 16.10. 22:20 keine Wolken
Di, 16.10. 22:10 keine Wolken
Di, 16.10. 22:00 1(2700m)
Di, 16.10. 21:50 keine Wolken
Di, 16.10. 21:40 1(3000m)
Di, 16.10. 21:30 1(3000m)
Di, 16.10. 21:00 2(3000m)
Di, 16.10. 20:30 1(3000m)
Di, 16.10. 20:00 1(3000m)
Di, 16.10. 19:30 keine Wolken
Ortszeit Luftdruck NN (hPa) Tendenz (hPa in 3 Std.)
Di, 16.10. 20:00 1019 + 0,9
Di, 16.10. 14:00 1018 - 0,2
Di, 16.10. 8:00 1020 + 1,4
Di, 16.10. 2:00 1018 + 0,5
Mo, 15.10. 20:00 1015 + 1,0
Mo, 15.10. 14:00 1013 - 0,7
Mo, 15.10. 8:00 1016 + 0,5
Mo, 15.10. 2:00 1015 + 0,6
Ortszeit Luftdruck NN (hPa) Tendenz (hPa in 3 Std.)
Di, 16.10. 22:30 1020 + 0,3
Di, 16.10. 22:20 1020 keine Meldung
Di, 16.10. 22:10 1020 keine Meldung
Di, 16.10. 22:00 1020 + 0,7
Di, 16.10. 21:50 1020 keine Meldung
Di, 16.10. 21:40 1020 keine Meldung
Di, 16.10. 21:30 1020 + 0,7
Di, 16.10. 21:00 1020 + 0,9
Di, 16.10. 20:30 1020 + 0,9
Di, 16.10. 20:00 1019 + 0,9
Di, 16.10. 19:30 1019 + 0,8
Ortszeit Schneehöhe (cm)
Di, 16.10. 20:00 0
Di, 16.10. 14:00 0
Di, 16.10. 8:00 0
Di, 16.10. 2:00 0
Mo, 15.10. 20:00 0
Mo, 15.10. 14:00 0
Mo, 15.10. 8:00 0
Mo, 15.10. 2:00 0
Ortszeit Schneehöhe (cm)
Di, 16.10. 22:30 0
Di, 16.10. 22:20 0
Di, 16.10. 22:10 0
Di, 16.10. 22:00 0
Di, 16.10. 21:50 0
Di, 16.10. 21:40 0
Di, 16.10. 21:30 0
Di, 16.10. 21:00 0
Di, 16.10. 20:30 0
Di, 16.10. 20:00 0
Di, 16.10. 19:30 0
Link zu dieser Seite / Seite empfehlen

Das Wetter in ...